sensor_id;sensor_type;location;lat;lon;timestamp;P1;durP1;ratioP1;P2;durP2;ratioP2
76978;SDS011;65911;47.502;19.148;2024-01-30T00:02:26;43.40;;;20.80;;
76978;SDS011;65911;47.502;19.148;2024-01-30T00:05:28;41.65;;;21.02;;
76978;SDS011;65911;47.502;19.148;2024-01-30T00:08:30;38.63;;;20.00;;
76978;SDS011;65911;47.502;19.148;2024-01-30T00:11:32;41.65;;;20.73;;
76978;SDS011;65911;47.502;19.148;2024-01-30T00:14:35;40.35;;;19.98;;
76978;SDS011;65911;47.502;19.148;2024-01-30T00:17:37;40.88;;;21.20;;
76978;SDS011;65911;47.502;19.148;2024-01-30T00:20:40;40.20;;;20.27;;
76978;SDS011;65911;47.502;19.148;2024-01-30T00:23:42;36.23;;;19.73;;
76978;SDS011;65911;47.502;19.148;2024-01-30T00:26:44;37.20;;;19.80;;
76978;SDS011;65911;47.502;19.148;2024-01-30T00:29:47;40.78;;;20.00;;
76978;SDS011;65911;47.502;19.148;2024-01-30T00:32:49;37.27;;;19.07;;
76978;SDS011;65911;47.502;19.148;2024-01-30T00:35:51;42.83;;;20.38;;
76978;SDS011;65911;47.502;19.148;2024-01-30T00:38:53;42.08;;;21.48;;
76978;SDS011;65911;47.502;19.148;2024-01-30T00:41:55;40.92;;;19.52;;
76978;SDS011;65911;47.502;19.148;2024-01-30T00:44:58;40.58;;;20.08;;
76978;SDS011;65911;47.502;19.148;2024-01-30T00:48:00;37.58;;;19.77;;
76978;SDS011;65911;47.502;19.148;2024-01-30T00:51:02;42.45;;;21.65;;
76978;SDS011;65911;47.502;19.148;2024-01-30T00:54:04;36.10;;;19.37;;
76978;SDS011;65911;47.502;19.148;2024-01-30T00:57:09;38.80;;;19.70;;
76978;SDS011;65911;47.502;19.148;2024-01-30T01:00:12;43.55;;;20.48;;
76978;SDS011;65911;47.502;19.148;2024-01-30T01:03:15;38.70;;;21.10;;
76978;SDS011;65911;47.502;19.148;2024-01-30T01:06:17;35.38;;;19.02;;
76978;SDS011;65911;47.502;19.148;2024-01-30T01:09:19;40.42;;;21.23;;
76978;SDS011;65911;47.502;19.148;2024-01-30T01:12:21;38.63;;;20.73;;
76978;SDS011;65911;47.502;19.148;2024-01-30T01:15:24;42.33;;;21.42;;
76978;SDS011;65911;47.502;19.148;2024-01-30T01:18:30;40.45;;;20.55;;
76978;SDS011;65911;47.502;19.148;2024-01-30T01:21:33;39.42;;;21.60;;
76978;SDS011;65911;47.502;19.148;2024-01-30T01:24:35;42.30;;;21.63;;
76978;SDS011;65911;47.502;19.148;2024-01-30T01:27:38;42.60;;;21.85;;
76978;SDS011;65911;47.502;19.148;2024-01-30T01:30:43;39.20;;;20.75;;
76978;SDS011;65911;47.502;19.148;2024-01-30T01:33:45;46.97;;;23.53;;
76978;SDS011;65911;47.502;19.148;2024-01-30T01:36:48;43.55;;;22.90;;
76978;SDS011;65911;47.502;19.148;2024-01-30T01:39:50;47.33;;;24.30;;
76978;SDS011;65911;47.502;19.148;2024-01-30T01:42:53;45.55;;;24.35;;
76978;SDS011;65911;47.502;19.148;2024-01-30T01:45:56;43.25;;;23.65;;
76978;SDS011;65911;47.502;19.148;2024-01-30T01:49:00;43.55;;;23.05;;
76978;SDS011;65911;47.502;19.148;2024-01-30T01:52:02;45.53;;;22.30;;
76978;SDS011;65911;47.502;19.148;2024-01-30T01:55:05;41.53;;;21.20;;
76978;SDS011;65911;47.502;19.148;2024-01-30T01:58:08;42.25;;;21.65;;
76978;SDS011;65911;47.502;19.148;2024-01-30T02:01:11;41.20;;;21.20;;
76978;SDS011;65911;47.502;19.148;2024-01-30T02:04:14;42.13;;;22.10;;
76978;SDS011;65911;47.502;19.148;2024-01-30T02:07:17;39.55;;;21.15;;
76978;SDS011;65911;47.502;19.148;2024-01-30T02:10:20;42.35;;;21.55;;
76978;SDS011;65911;47.502;19.148;2024-01-30T02:13:23;39.38;;;20.75;;
76978;SDS011;65911;47.502;19.148;2024-01-30T02:16:26;43.72;;;21.50;;
76978;SDS011;65911;47.502;19.148;2024-01-30T02:19:29;45.03;;;22.60;;
76978;SDS011;65911;47.502;19.148;2024-01-30T02:22:32;40.63;;;20.42;;
76978;SDS011;65911;47.502;19.148;2024-01-30T02:25:39;40.27;;;20.93;;
76978;SDS011;65911;47.502;19.148;2024-01-30T02:28:46;45.60;;;22.08;;
76978;SDS011;65911;47.502;19.148;2024-01-30T02:31:49;41.47;;;21.50;;
76978;SDS011;65911;47.502;19.148;2024-01-30T02:34:51;45.73;;;22.03;;
76978;SDS011;65911;47.502;19.148;2024-01-30T02:37:53;43.17;;;22.05;;
76978;SDS011;65911;47.502;19.148;2024-01-30T02:40:55;44.72;;;21.98;;
76978;SDS011;65911;47.502;19.148;2024-01-30T02:43:58;44.88;;;22.05;;
76978;SDS011;65911;47.502;19.148;2024-01-30T02:47:00;41.97;;;21.83;;
76978;SDS011;65911;47.502;19.148;2024-01-30T02:50:03;49.30;;;23.05;;
76978;SDS011;65911;47.502;19.148;2024-01-30T02:53:06;45.28;;;22.02;;
76978;SDS011;65911;47.502;19.148;2024-01-30T02:56:08;49.13;;;22.43;;
76978;SDS011;65911;47.502;19.148;2024-01-30T02:59:11;43.38;;;21.77;;
76978;SDS011;65911;47.502;19.148;2024-01-30T03:02:14;44.92;;;22.02;;
76978;SDS011;65911;47.502;19.148;2024-01-30T03:05:16;42.50;;;22.10;;
76978;SDS011;65911;47.502;19.148;2024-01-30T03:08:18;47.03;;;23.30;;
76978;SDS011;65911;47.502;19.148;2024-01-30T03:11:20;41.85;;;21.20;;
76978;SDS011;65911;47.502;19.148;2024-01-30T03:14:22;47.42;;;23.10;;
76978;SDS011;65911;47.502;19.148;2024-01-30T03:17:24;43.15;;;21.40;;
76978;SDS011;65911;47.502;19.148;2024-01-30T03:20:27;43.10;;;21.80;;
76978;SDS011;65911;47.502;19.148;2024-01-30T03:23:29;43.97;;;22.90;;
76978;SDS011;65911;47.502;19.148;2024-01-30T03:26:31;43.30;;;21.37;;
76978;SDS011;65911;47.502;19.148;2024-01-30T03:29:33;43.30;;;21.75;;
76978;SDS011;65911;47.502;19.148;2024-01-30T03:32:36;41.72;;;20.65;;
76978;SDS011;65911;47.502;19.148;2024-01-30T03:35:38;42.67;;;21.43;;
76978;SDS011;65911;47.502;19.148;2024-01-30T03:38:40;43.80;;;21.02;;
76978;SDS011;65911;47.502;19.148;2024-01-30T03:41:42;42.45;;;21.88;;
76978;SDS011;65911;47.502;19.148;2024-01-30T03:44:46;44.63;;;21.30;;
76978;SDS011;65911;47.502;19.148;2024-01-30T03:47:48;40.38;;;19.48;;
76978;SDS011;65911;47.502;19.148;2024-01-30T03:50:50;39.35;;;19.92;;
76978;SDS011;65911;47.502;19.148;2024-01-30T03:53:52;39.45;;;19.88;;
76978;SDS011;65911;47.502;19.148;2024-01-30T03:56:55;39.53;;;19.10;;
76978;SDS011;65911;47.502;19.148;2024-01-30T03:59:57;38.42;;;19.20;;
76978;SDS011;65911;47.502;19.148;2024-01-30T04:03:14;40.88;;;18.88;;
76978;SDS011;65911;47.502;19.148;2024-01-30T04:06:17;41.20;;;19.80;;
76978;SDS011;65911;47.502;19.148;2024-01-30T04:09:19;36.70;;;19.38;;
76978;SDS011;65911;47.502;19.148;2024-01-30T04:12:21;36.58;;;19.10;;
76978;SDS011;65911;47.502;19.148;2024-01-30T04:15:24;40.78;;;19.85;;
76978;SDS011;65911;47.502;19.148;2024-01-30T04:18:26;38.45;;;19.00;;
76978;SDS011;65911;47.502;19.148;2024-01-30T04:21:28;37.45;;;18.65;;
76978;SDS011;65911;47.502;19.148;2024-01-30T04:24:30;41.63;;;19.15;;
76978;SDS011;65911;47.502;19.148;2024-01-30T04:27:32;43.17;;;19.57;;
76978;SDS011;65911;47.502;19.148;2024-01-30T04:30:34;38.88;;;18.73;;
76978;SDS011;65911;47.502;19.148;2024-01-30T04:33:37;34.78;;;19.05;;
76978;SDS011;65911;47.502;19.148;2024-01-30T04:36:39;34.73;;;19.03;;
76978;SDS011;65911;47.502;19.148;2024-01-30T04:39:46;37.55;;;17.42;;
76978;SDS011;65911;47.502;19.148;2024-01-30T04:42:48;35.15;;;17.85;;
76978;SDS011;65911;47.502;19.148;2024-01-30T04:45:50;35.20;;;18.35;;
76978;SDS011;65911;47.502;19.148;2024-01-30T04:48:54;36.65;;;18.35;;
76978;SDS011;65911;47.502;19.148;2024-01-30T04:51:56;39.17;;;17.77;;
76978;SDS011;65911;47.502;19.148;2024-01-30T04:54:58;38.90;;;17.63;;
76978;SDS011;65911;47.502;19.148;2024-01-30T04:58:01;35.83;;;17.43;;
76978;SDS011;65911;47.502;19.148;2024-01-30T05:01:03;35.22;;;17.48;;
76978;SDS011;65911;47.502;19.148;2024-01-30T05:04:09;31.95;;;17.13;;
76978;SDS011;65911;47.502;19.148;2024-01-30T05:07:16;39.93;;;17.87;;
76978;SDS011;65911;47.502;19.148;2024-01-30T05:10:19;35.28;;;17.20;;
76978;SDS011;65911;47.502;19.148;2024-01-30T05:13:21;34.53;;;17.35;;
76978;SDS011;65911;47.502;19.148;2024-01-30T05:16:24;38.85;;;17.38;;
76978;SDS011;65911;47.502;19.148;2024-01-30T05:19:26;35.08;;;17.08;;
76978;SDS011;65911;47.502;19.148;2024-01-30T05:22:29;33.38;;;17.20;;
76978;SDS011;65911;47.502;19.148;2024-01-30T05:25:31;36.92;;;18.58;;
76978;SDS011;65911;47.502;19.148;2024-01-30T05:28:33;33.03;;;17.50;;
76978;SDS011;65911;47.502;19.148;2024-01-30T05:31:35;33.10;;;17.33;;
76978;SDS011;65911;47.502;19.148;2024-01-30T05:34:38;36.95;;;17.42;;
76978;SDS011;65911;47.502;19.148;2024-01-30T05:37:40;37.47;;;17.63;;
76978;SDS011;65911;47.502;19.148;2024-01-30T05:40:42;37.40;;;18.13;;
76978;SDS011;65911;47.502;19.148;2024-01-30T05:43:44;36.10;;;16.67;;
76978;SDS011;65911;47.502;19.148;2024-01-30T05:46:47;38.58;;;18.83;;
76978;SDS011;65911;47.502;19.148;2024-01-30T05:49:49;35.10;;;17.98;;
76978;SDS011;65911;47.502;19.148;2024-01-30T05:52:51;38.67;;;17.55;;
76978;SDS011;65911;47.502;19.148;2024-01-30T05:55:53;34.13;;;16.95;;
76978;SDS011;65911;47.502;19.148;2024-01-30T05:58:56;33.90;;;17.53;;
76978;SDS011;65911;47.502;19.148;2024-01-30T06:01:58;39.10;;;18.55;;
76978;SDS011;65911;47.502;19.148;2024-01-30T06:05:01;37.60;;;18.42;;
76978;SDS011;65911;47.502;19.148;2024-01-30T06:08:03;38.10;;;18.60;;
76978;SDS011;65911;47.502;19.148;2024-01-30T06:11:09;39.25;;;19.10;;
76978;SDS011;65911;47.502;19.148;2024-01-30T06:14:12;38.08;;;18.48;;
76978;SDS011;65911;47.502;19.148;2024-01-30T06:17:14;40.92;;;19.33;;
76978;SDS011;65911;47.502;19.148;2024-01-30T06:20:17;36.72;;;19.23;;
76978;SDS011;65911;47.502;19.148;2024-01-30T06:23:20;35.75;;;19.10;;
76978;SDS011;65911;47.502;19.148;2024-01-30T06:26:22;37.42;;;19.35;;
76978;SDS011;65911;47.502;19.148;2024-01-30T06:29:24;40.60;;;20.07;;
76978;SDS011;65911;47.502;19.148;2024-01-30T06:32:28;39.03;;;20.15;;
76978;SDS011;65911;47.502;19.148;2024-01-30T06:35:30;41.05;;;18.67;;
76978;SDS011;65911;47.502;19.148;2024-01-30T06:38:32;37.63;;;19.30;;
76978;SDS011;65911;47.502;19.148;2024-01-30T06:41:35;39.63;;;19.33;;
76978;SDS011;65911;47.502;19.148;2024-01-30T06:44:37;36.08;;;18.58;;
76978;SDS011;65911;47.502;19.148;2024-01-30T06:47:39;35.13;;;18.67;;
76978;SDS011;65911;47.502;19.148;2024-01-30T06:50:41;36.85;;;18.08;;
76978;SDS011;65911;47.502;19.148;2024-01-30T06:53:44;33.88;;;17.65;;
76978;SDS011;65911;47.502;19.148;2024-01-30T06:56:47;33.30;;;18.13;;
76978;SDS011;65911;47.502;19.148;2024-01-30T06:59:49;33.40;;;16.93;;
76978;SDS011;65911;47.502;19.148;2024-01-30T07:03:00;32.78;;;17.13;;
76978;SDS011;65911;47.502;19.148;2024-01-30T07:06:07;34.20;;;17.25;;
76978;SDS011;65911;47.502;19.148;2024-01-30T07:09:17;30.07;;;17.43;;
76978;SDS011;65911;47.502;19.148;2024-01-30T07:14:09;30.50;;;15.73;;
76978;SDS011;65911;47.502;19.148;2024-01-30T07:17:59;31.27;;;15.55;;
76978;SDS011;65911;47.502;19.148;2024-01-30T07:21:02;28.75;;;16.05;;
76978;SDS011;65911;47.502;19.148;2024-01-30T07:24:18;33.17;;;16.83;;
76978;SDS011;65911;47.502;19.148;2024-01-30T07:27:26;34.13;;;16.70;;
76978;SDS011;65911;47.502;19.148;2024-01-30T07:30:31;30.83;;;17.13;;
76978;SDS011;65911;47.502;19.148;2024-01-30T07:33:56;32.87;;;16.80;;
76978;SDS011;65911;47.502;19.148;2024-01-30T07:36:58;31.35;;;16.30;;
76978;SDS011;65911;47.502;19.148;2024-01-30T07:40:41;31.17;;;16.23;;
76978;SDS011;65911;47.502;19.148;2024-01-30T07:43:46;34.17;;;17.20;;
76978;SDS011;65911;47.502;19.148;2024-01-30T07:47:50;33.80;;;16.77;;
76978;SDS011;65911;47.502;19.148;2024-01-30T07:50:55;33.33;;;17.27;;
76978;SDS011;65911;47.502;19.148;2024-01-30T07:54:00;32.17;;;17.60;;
76978;SDS011;65911;47.502;19.148;2024-01-30T08:02:24;33.33;;;16.92;;
76978;SDS011;65911;47.502;19.148;2024-01-30T08:06:16;31.00;;;18.02;;
76978;SDS011;65911;47.502;19.148;2024-01-30T08:09:23;32.30;;;16.83;;
76978;SDS011;65911;47.502;19.148;2024-01-30T08:12:26;34.42;;;16.73;;
76978;SDS011;65911;47.502;19.148;2024-01-30T08:15:48;30.92;;;17.75;;
76978;SDS011;65911;47.502;19.148;2024-01-30T08:19:16;30.40;;;16.27;;
76978;SDS011;65911;47.502;19.148;2024-01-30T08:22:19;32.13;;;15.98;;
76978;SDS011;65911;47.502;19.148;2024-01-30T08:25:21;28.83;;;16.80;;
76978;SDS011;65911;47.502;19.148;2024-01-30T08:28:24;32.65;;;15.20;;
76978;SDS011;65911;47.502;19.148;2024-01-30T08:31:26;28.38;;;14.23;;
76978;SDS011;65911;47.502;19.148;2024-01-30T08:34:29;27.52;;;15.98;;
76978;SDS011;65911;47.502;19.148;2024-01-30T08:37:31;25.60;;;15.30;;
76978;SDS011;65911;47.502;19.148;2024-01-30T08:40:35;26.97;;;14.67;;
76978;SDS011;65911;47.502;19.148;2024-01-30T08:43:39;25.95;;;14.80;;
76978;SDS011;65911;47.502;19.148;2024-01-30T08:46:42;29.00;;;14.15;;
76978;SDS011;65911;47.502;19.148;2024-01-30T08:49:44;27.23;;;13.83;;
76978;SDS011;65911;47.502;19.148;2024-01-30T08:52:54;30.20;;;14.45;;
76978;SDS011;65911;47.502;19.148;2024-01-30T08:55:56;25.90;;;14.25;;
76978;SDS011;65911;47.502;19.148;2024-01-30T08:59:11;27.67;;;13.00;;
76978;SDS011;65911;47.502;19.148;2024-01-30T09:10:33;27.38;;;14.23;;
76978;SDS011;65911;47.502;19.148;2024-01-30T09:14:58;27.77;;;13.60;;
76978;SDS011;65911;47.502;19.148;2024-01-30T09:18:42;28.67;;;14.40;;
76978;SDS011;65911;47.502;19.148;2024-01-30T09:27:49;25.37;;;14.03;;
76978;SDS011;65911;47.502;19.148;2024-01-30T09:31:09;24.60;;;12.80;;
76978;SDS011;65911;47.502;19.148;2024-01-30T09:34:12;24.08;;;14.38;;
76978;SDS011;65911;47.502;19.148;2024-01-30T09:37:39;26.63;;;12.73;;
76978;SDS011;65911;47.502;19.148;2024-01-30T09:41:02;24.23;;;13.13;;
76978;SDS011;65911;47.502;19.148;2024-01-30T09:44:18;22.13;;;12.98;;
76978;SDS011;65911;47.502;19.148;2024-01-30T09:47:29;23.15;;;12.75;;
76978;SDS011;65911;47.502;19.148;2024-01-30T09:52:06;24.03;;;12.27;;
76978;SDS011;65911;47.502;19.148;2024-01-30T09:55:25;26.80;;;13.18;;
76978;SDS011;65911;47.502;19.148;2024-01-30T09:58:28;24.20;;;12.77;;
76978;SDS011;65911;47.502;19.148;2024-01-30T10:01:33;24.33;;;12.30;;
76978;SDS011;65911;47.502;19.148;2024-01-30T10:04:37;24.38;;;13.18;;
76978;SDS011;65911;47.502;19.148;2024-01-30T10:07:49;22.15;;;12.30;;
76978;SDS011;65911;47.502;19.148;2024-01-30T10:10:52;23.08;;;12.98;;
76978;SDS011;65911;47.502;19.148;2024-01-30T10:13:54;24.17;;;12.00;;
76978;SDS011;65911;47.502;19.148;2024-01-30T10:17:01;20.55;;;10.93;;
76978;SDS011;65911;47.502;19.148;2024-01-30T10:20:07;21.85;;;11.02;;
76978;SDS011;65911;47.502;19.148;2024-01-30T10:23:10;22.27;;;12.27;;
76978;SDS011;65911;47.502;19.148;2024-01-30T10:26:15;23.38;;;11.82;;
76978;SDS011;65911;47.502;19.148;2024-01-30T10:29:19;19.65;;;11.38;;
76978;SDS011;65911;47.502;19.148;2024-01-30T10:32:21;19.43;;;10.83;;
76978;SDS011;65911;47.502;19.148;2024-01-30T10:35:24;19.92;;;9.60;;
76978;SDS011;65911;47.502;19.148;2024-01-30T10:38:27;19.67;;;10.90;;
76978;SDS011;65911;47.502;19.148;2024-01-30T10:41:31;23.02;;;11.55;;
76978;SDS011;65911;47.502;19.148;2024-01-30T10:47:53;20.80;;;10.63;;
76978;SDS011;65911;47.502;19.148;2024-01-30T10:50:59;17.75;;;10.10;;
76978;SDS011;65911;47.502;19.148;2024-01-30T10:54:08;17.37;;;9.70;;
76978;SDS011;65911;47.502;19.148;2024-01-30T10:57:19;18.88;;;10.77;;
76978;SDS011;65911;47.502;19.148;2024-01-30T11:00:21;16.30;;;8.82;;
76978;SDS011;65911;47.502;19.148;2024-01-30T11:03:32;14.47;;;9.37;;
76978;SDS011;65911;47.502;19.148;2024-01-30T11:06:44;17.95;;;8.80;;
76978;SDS011;65911;47.502;19.148;2024-01-30T11:09:52;14.93;;;9.27;;
76978;SDS011;65911;47.502;19.148;2024-01-30T11:12:55;14.48;;;8.63;;
76978;SDS011;65911;47.502;19.148;2024-01-30T11:16:00;14.70;;;8.45;;
76978;SDS011;65911;47.502;19.148;2024-01-30T11:19:04;13.70;;;8.43;;
76978;SDS011;65911;47.502;19.148;2024-01-30T11:22:10;14.98;;;8.90;;
76978;SDS011;65911;47.502;19.148;2024-01-30T11:25:17;13.23;;;7.70;;
76978;SDS011;65911;47.502;19.148;2024-01-30T11:28:21;15.85;;;8.55;;
76978;SDS011;65911;47.502;19.148;2024-01-30T11:31:26;15.80;;;8.02;;
76978;SDS011;65911;47.502;19.148;2024-01-30T11:34:28;14.80;;;7.80;;
76978;SDS011;65911;47.502;19.148;2024-01-30T11:37:30;16.00;;;8.70;;
76978;SDS011;65911;47.502;19.148;2024-01-30T11:40:33;13.45;;;7.70;;
76978;SDS011;65911;47.502;19.148;2024-01-30T11:43:37;15.70;;;7.80;;
76978;SDS011;65911;47.502;19.148;2024-01-30T11:46:40;15.88;;;7.40;;
76978;SDS011;65911;47.502;19.148;2024-01-30T11:49:43;11.85;;;7.22;;
76978;SDS011;65911;47.502;19.148;2024-01-30T11:53:04;12.60;;;6.97;;
76978;SDS011;65911;47.502;19.148;2024-01-30T11:57:11;12.40;;;7.00;;
76978;SDS011;65911;47.502;19.148;2024-01-30T12:00:27;14.38;;;7.45;;
76978;SDS011;65911;47.502;19.148;2024-01-30T12:03:31;14.20;;;6.88;;
76978;SDS011;65911;47.502;19.148;2024-01-30T12:06:34;11.40;;;7.03;;
76978;SDS011;65911;47.502;19.148;2024-01-30T12:09:53;12.63;;;7.25;;
76978;SDS011;65911;47.502;19.148;2024-01-30T12:12:56;12.48;;;6.72;;
76978;SDS011;65911;47.502;19.148;2024-01-30T12:16:00;15.95;;;7.10;;
76978;SDS011;65911;47.502;19.148;2024-01-30T12:19:03;13.23;;;6.47;;
76978;SDS011;65911;47.502;19.148;2024-01-30T12:22:06;11.98;;;6.72;;
76978;SDS011;65911;47.502;19.148;2024-01-30T12:25:10;11.70;;;6.35;;
76978;SDS011;65911;47.502;19.148;2024-01-30T12:28:13;8.60;;;5.27;;
76978;SDS011;65911;47.502;19.148;2024-01-30T12:31:17;10.30;;;6.03;;
76978;SDS011;65911;47.502;19.148;2024-01-30T12:34:20;9.50;;;5.35;;
76978;SDS011;65911;47.502;19.148;2024-01-30T12:37:23;9.50;;;5.40;;
76978;SDS011;65911;47.502;19.148;2024-01-30T12:40:27;8.80;;;5.30;;
76978;SDS011;65911;47.502;19.148;2024-01-30T12:43:30;9.25;;;5.32;;
76978;SDS011;65911;47.502;19.148;2024-01-30T12:46:43;10.30;;;5.70;;
76978;SDS011;65911;47.502;19.148;2024-01-30T12:49:46;7.93;;;5.75;;
76978;SDS011;65911;47.502;19.148;2024-01-30T12:53:09;8.15;;;4.95;;
76978;SDS011;65911;47.502;19.148;2024-01-30T12:56:11;10.10;;;5.53;;
76978;SDS011;65911;47.502;19.148;2024-01-30T12:59:14;9.40;;;5.30;;
76978;SDS011;65911;47.502;19.148;2024-01-30T13:02:16;8.20;;;5.40;;
76978;SDS011;65911;47.502;19.148;2024-01-30T13:05:22;10.93;;;5.72;;
76978;SDS011;65911;47.502;19.148;2024-01-30T13:08:25;8.83;;;5.90;;
76978;SDS011;65911;47.502;19.148;2024-01-30T13:11:44;9.00;;;4.65;;
76978;SDS011;65911;47.502;19.148;2024-01-30T13:14:46;9.30;;;4.95;;
76978;SDS011;65911;47.502;19.148;2024-01-30T13:17:53;8.80;;;4.97;;
76978;SDS011;65911;47.502;19.148;2024-01-30T13:21:16;7.15;;;4.65;;
76978;SDS011;65911;47.502;19.148;2024-01-30T13:24:18;5.95;;;3.95;;
76978;SDS011;65911;47.502;19.148;2024-01-30T13:27:23;11.52;;;4.28;;
76978;SDS011;65911;47.502;19.148;2024-01-30T13:30:25;6.00;;;3.83;;
76978;SDS011;65911;47.502;19.148;2024-01-30T13:33:34;5.45;;;3.63;;
76978;SDS011;65911;47.502;19.148;2024-01-30T13:36:45;6.03;;;3.85;;
76978;SDS011;65911;47.502;19.148;2024-01-30T13:39:51;6.77;;;3.50;;
76978;SDS011;65911;47.502;19.148;2024-01-30T13:42:54;5.63;;;3.60;;
76978;SDS011;65911;47.502;19.148;2024-01-30T13:45:57;5.18;;;3.60;;
76978;SDS011;65911;47.502;19.148;2024-01-30T13:49:00;6.90;;;3.75;;
76978;SDS011;65911;47.502;19.148;2024-01-30T13:52:03;8.35;;;3.72;;
76978;SDS011;65911;47.502;19.148;2024-01-30T13:55:10;5.72;;;3.72;;
76978;SDS011;65911;47.502;19.148;2024-01-30T13:58:13;6.07;;;3.95;;
76978;SDS011;65911;47.502;19.148;2024-01-30T14:01:15;7.13;;;4.23;;
76978;SDS011;65911;47.502;19.148;2024-01-30T14:04:18;7.63;;;4.30;;
76978;SDS011;65911;47.502;19.148;2024-01-30T14:07:21;6.82;;;4.03;;
76978;SDS011;65911;47.502;19.148;2024-01-30T14:10:23;7.97;;;3.73;;
76978;SDS011;65911;47.502;19.148;2024-01-30T14:13:26;4.97;;;3.35;;
76978;SDS011;65911;47.502;19.148;2024-01-30T14:16:29;4.38;;;3.58;;
76978;SDS011;65911;47.502;19.148;2024-01-30T14:19:31;6.72;;;3.97;;
76978;SDS011;65911;47.502;19.148;2024-01-30T14:22:33;6.25;;;3.60;;
76978;SDS011;65911;47.502;19.148;2024-01-30T14:25:36;5.75;;;3.63;;
76978;SDS011;65911;47.502;19.148;2024-01-30T14:28:38;7.80;;;4.03;;
76978;SDS011;65911;47.502;19.148;2024-01-30T14:31:40;5.80;;;3.57;;
76978;SDS011;65911;47.502;19.148;2024-01-30T14:34:43;5.80;;;3.25;;
76978;SDS011;65911;47.502;19.148;2024-01-30T14:37:45;4.68;;;3.38;;
76978;SDS011;65911;47.502;19.148;2024-01-30T14:40:48;5.23;;;3.40;;
76978;SDS011;65911;47.502;19.148;2024-01-30T14:43:50;3.83;;;2.83;;
76978;SDS011;65911;47.502;19.148;2024-01-30T14:46:52;6.55;;;3.63;;
76978;SDS011;65911;47.502;19.148;2024-01-30T14:49:54;6.03;;;3.70;;
76978;SDS011;65911;47.502;19.148;2024-01-30T14:52:56;5.95;;;4.18;;
76978;SDS011;65911;47.502;19.148;2024-01-30T14:55:59;5.03;;;3.67;;
76978;SDS011;65911;47.502;19.148;2024-01-30T14:59:01;4.43;;;3.17;;
76978;SDS011;65911;47.502;19.148;2024-01-30T15:02:04;6.27;;;3.60;;
76978;SDS011;65911;47.502;19.148;2024-01-30T15:05:06;5.95;;;4.03;;
76978;SDS011;65911;47.502;19.148;2024-01-30T15:08:09;4.90;;;3.40;;
76978;SDS011;65911;47.502;19.148;2024-01-30T15:11:11;6.00;;;4.03;;
76978;SDS011;65911;47.502;19.148;2024-01-30T15:14:14;4.53;;;3.58;;
76978;SDS011;65911;47.502;19.148;2024-01-30T15:17:17;5.55;;;4.03;;
76978;SDS011;65911;47.502;19.148;2024-01-30T15:20:20;9.70;;;4.40;;
76978;SDS011;65911;47.502;19.148;2024-01-30T15:23:22;4.90;;;3.50;;
76978;SDS011;65911;47.502;19.148;2024-01-30T15:26:24;6.03;;;4.13;;
76978;SDS011;65911;47.502;19.148;2024-01-30T15:29:27;6.50;;;3.90;;
76978;SDS011;65911;47.502;19.148;2024-01-30T15:32:29;9.57;;;4.00;;
76978;SDS011;65911;47.502;19.148;2024-01-30T15:35:31;14.93;;;5.50;;
76978;SDS011;65911;47.502;19.148;2024-01-30T15:38:34;7.25;;;4.10;;
76978;SDS011;65911;47.502;19.148;2024-01-30T15:41:36;6.97;;;4.30;;
76978;SDS011;65911;47.502;19.148;2024-01-30T15:44:39;5.88;;;4.13;;
76978;SDS011;65911;47.502;19.148;2024-01-30T15:47:41;5.72;;;4.05;;
76978;SDS011;65911;47.502;19.148;2024-01-30T15:50:44;6.05;;;4.03;;
76978;SDS011;65911;47.502;19.148;2024-01-30T15:53:46;7.38;;;4.70;;
76978;SDS011;65911;47.502;19.148;2024-01-30T15:56:48;11.98;;;4.85;;
76978;SDS011;65911;47.502;19.148;2024-01-30T15:59:50;8.70;;;5.13;;
76978;SDS011;65911;47.502;19.148;2024-01-30T16:02:53;7.10;;;4.30;;
76978;SDS011;65911;47.502;19.148;2024-01-30T16:05:55;7.57;;;5.10;;
76978;SDS011;65911;47.502;19.148;2024-01-30T16:08:57;11.85;;;5.80;;
76978;SDS011;65911;47.502;19.148;2024-01-30T16:12:00;10.80;;;5.73;;
76978;SDS011;65911;47.502;19.148;2024-01-30T16:15:02;9.55;;;5.88;;
76978;SDS011;65911;47.502;19.148;2024-01-30T16:18:05;12.50;;;6.93;;
76978;SDS011;65911;47.502;19.148;2024-01-30T16:21:07;15.35;;;8.07;;
76978;SDS011;65911;47.502;19.148;2024-01-30T16:24:10;13.65;;;7.90;;
76978;SDS011;65911;47.502;19.148;2024-01-30T16:27:12;11.32;;;7.53;;
76978;SDS011;65911;47.502;19.148;2024-01-30T16:30:15;11.90;;;7.18;;
76978;SDS011;65911;47.502;19.148;2024-01-30T16:33:19;15.47;;;7.90;;
76978;SDS011;65911;47.502;19.148;2024-01-30T16:36:21;14.82;;;9.00;;
76978;SDS011;65911;47.502;19.148;2024-01-30T16:39:24;17.95;;;8.27;;
76978;SDS011;65911;47.502;19.148;2024-01-30T16:42:26;16.57;;;8.50;;
76978;SDS011;65911;47.502;19.148;2024-01-30T16:45:28;15.88;;;8.90;;
76978;SDS011;65911;47.502;19.148;2024-01-30T16:48:31;15.02;;;7.85;;
76978;SDS011;65911;47.502;19.148;2024-01-30T16:51:33;19.92;;;9.68;;
76978;SDS011;65911;47.502;19.148;2024-01-30T16:54:35;20.83;;;10.07;;
76978;SDS011;65911;47.502;19.148;2024-01-30T16:57:37;19.02;;;9.77;;
76978;SDS011;65911;47.502;19.148;2024-01-30T17:00:40;21.23;;;10.05;;
76978;SDS011;65911;47.502;19.148;2024-01-30T17:03:42;18.77;;;10.33;;
76978;SDS011;65911;47.502;19.148;2024-01-30T17:06:45;25.38;;;10.55;;
76978;SDS011;65911;47.502;19.148;2024-01-30T17:09:48;18.05;;;10.73;;
76978;SDS011;65911;47.502;19.148;2024-01-30T17:12:50;21.37;;;11.80;;
76978;SDS011;65911;47.502;19.148;2024-01-30T17:15:52;21.27;;;11.80;;
76978;SDS011;65911;47.502;19.148;2024-01-30T17:18:55;21.05;;;11.30;;
76978;SDS011;65911;47.502;19.148;2024-01-30T17:21:58;22.63;;;11.25;;
76978;SDS011;65911;47.502;19.148;2024-01-30T17:25:01;24.15;;;12.15;;
76978;SDS011;65911;47.502;19.148;2024-01-30T17:28:04;23.08;;;12.57;;
76978;SDS011;65911;47.502;19.148;2024-01-30T17:31:07;22.75;;;11.93;;
76978;SDS011;65911;47.502;19.148;2024-01-30T17:34:10;23.97;;;12.93;;
76978;SDS011;65911;47.502;19.148;2024-01-30T17:37:13;22.83;;;13.07;;
76978;SDS011;65911;47.502;19.148;2024-01-30T17:40:15;26.00;;;13.30;;
76978;SDS011;65911;47.502;19.148;2024-01-30T17:43:17;27.90;;;13.23;;
76978;SDS011;65911;47.502;19.148;2024-01-30T17:46:20;25.48;;;13.30;;
76978;SDS011;65911;47.502;19.148;2024-01-30T17:49:22;31.15;;;15.63;;
76978;SDS011;65911;47.502;19.148;2024-01-30T17:52:31;31.30;;;15.05;;
76978;SDS011;65911;47.502;19.148;2024-01-30T17:55:34;29.02;;;14.65;;
76978;SDS011;65911;47.502;19.148;2024-01-30T17:58:37;30.15;;;15.77;;
76978;SDS011;65911;47.502;19.148;2024-01-30T18:01:39;31.23;;;16.08;;
76978;SDS011;65911;47.502;19.148;2024-01-30T18:04:42;31.57;;;15.03;;
76978;SDS011;65911;47.502;19.148;2024-01-30T18:07:45;34.08;;;15.77;;
76978;SDS011;65911;47.502;19.148;2024-01-30T18:10:47;30.65;;;16.58;;
76978;SDS011;65911;47.502;19.148;2024-01-30T18:13:51;29.70;;;16.03;;
76978;SDS011;65911;47.502;19.148;2024-01-30T18:16:55;31.25;;;16.80;;
76978;SDS011;65911;47.502;19.148;2024-01-30T18:19:57;34.10;;;17.75;;
76978;SDS011;65911;47.502;19.148;2024-01-30T18:23:00;31.15;;;17.27;;